Time;durP1;ratioP1;P1;durP2;ratioP2;P2;SDS_P1;SDS_P2;PMS_P1;PMS_P2;Temp;Humidity;BMP_temperature;BMP_pressure;BME280_temperature;BME280_humidity;BME280_pressure;Samples;Min_cycle;Max_cycle;Signal;HPM_P1;HPM_P2
2023/03/20 00:02:22;;;;;;;25.48;14.00;;;307.60;2099.20;;;;;;5051340;28;20087;-79
2023/03/20 00:04:48;;;;;;;24.55;12.98;;;307.60;2099.20;;;;;;5052059;28;20124;-79
2023/03/20 00:07:13;;;;;;;26.55;12.85;;;307.60;2124.80;;;;;;5057272;28;20123;-79
2023/03/20 00:09:39;;;;;;;21.13;12.40;;;307.60;2073.60;;;;;;5049713;28;20511;-80
2023/03/20 00:12:05;;;;;;;;;;;307.60;2073.60;;;;;;5057447;28;20504;-79
2023/03/20 00:14:32;;;;;;;21.42;11.25;;;307.50;2099.20;;;;;;5057410;28;19904;-79
2023/03/20 00:16:59;;;;;;;25.23;11.18;;;307.60;2073.60;;;;;;5046436;28;20037;-79
2023/03/20 00:19:26;;;;;;;21.83;10.98;;;307.50;2099.20;;;;;;5057164;28;20109;-79
2023/03/20 00:21:53;;;;;;;20.00;11.25;;;307.50;2124.80;;;;;;5052734;28;20025;-79
2023/03/20 00:24:20;;;;;;;18.38;11.02;;;307.40;2124.80;;;;;;5057275;28;20025;-79
2023/03/20 00:26:48;;;;;;;20.55;11.05;;;307.40;2150.40;;;;;;5047223;28;20386;-79
2023/03/20 00:29:21;;;;;;;21.42;11.02;;;307.40;2150.40;;;;;;5054859;28;20548;-79
2023/03/20 00:31:47;;;;;;;19.08;11.68;;;307.40;2150.40;;;;;;5052795;28;20039;-79
2023/03/20 00:34:16;;;;;;;18.95;10.38;;;307.40;2176.00;;;;;;5056455;28;20029;-79
2023/03/20 00:36:42;;;;;;;18.50;11.00;;;307.40;2176.00;;;;;;5057209;28;20031;-79
2023/03/20 00:39:08;;;;;;;20.60;11.40;;;307.40;2252.80;;;;;;5058224;28;20569;-79
2023/03/20 00:41:43;;;;;;;19.58;11.95;;;307.40;2278.40;;;;;;5076017;28;20027;-80
2023/03/20 00:44:32;;;;;;;22.63;11.98;;;282.50;2227.20;;;;;;5076114;28;20052;-80
2023/03/20 00:47:05;;;;;;;25.55;12.35;;;282.10;2278.40;;;;;;5057516;28;20511;-79
2023/03/20 00:49:33;;;;;;;23.95;11.73;;;281.90;2278.40;;;;;;5057781;28;20443;-80
2023/03/20 00:52:01;;;;;;;21.88;11.85;;;281.70;2278.40;;;;;;5057845;28;20037;-79
2023/03/20 00:54:27;;;;;;;20.73;11.68;;;281.60;2278.40;;;;;;5057684;28;20017;-80
2023/03/20 00:57:05;;;;;;;20.33;11.68;;;256.90;2252.80;;;;;;5052527;28;20021;-80
2023/03/20 00:59:35;;;;;;;21.23;10.77;;;281.70;2278.40;;;;;;5052891;28;20033;-80
2023/03/20 01:02:01;;;;;;;20.10;10.85;;;281.90;2278.40;;;;;;5054581;28;20033;-79
2023/03/20 01:04:35;;;;;;;28.63;12.48;;;282.10;2278.40;;;;;;5054629;28;20021;-79
2023/03/20 01:07:01;;;;;;;18.63;10.57;;;282.20;2278.40;;;;;;5054288;28;20485;-79
2023/03/20 01:09:27;;;;;;;19.80;11.40;;;282.40;2278.40;;;;;;5054222;28;20028;-80
2023/03/20 01:11:52;;;;;;;20.02;9.65;;;282.50;2278.40;;;;;;5053486;28;20047;-80
2023/03/20 01:14:18;;;;;;;19.35;10.20;;;307.20;2304.00;;;;;;5054278;28;20029;-81
2023/03/20 01:16:44;;;;;;;;;;;307.30;2304.00;;;;;;5055561;28;20031;-79
2023/03/20 01:19:13;;;;;;;20.80;10.80;;;307.20;2304.00;;;;;;5054148;28;19912;-80
2023/03/20 01:21:39;;;;;;;23.15;11.35;;;282.50;2278.40;;;;;;5048639;28;20049;-80
2023/03/20 01:24:05;;;;;;;21.52;11.02;;;282.40;2278.40;;;;;;5046914;28;20067;-80
2023/03/20 01:26:35;;;;;;;22.90;10.52;;;282.50;2278.40;;;;;;5038840;28;20033;-79
2023/03/20 01:29:02;;;;;;;19.23;11.00;;;282.20;2278.40;;;;;;5053975;28;20059;-79
2023/03/20 01:31:28;;;;;;;15.50;8.60;;;282.30;2278.40;;;;;;5053883;28;20033;-79
2023/03/20 01:33:54;;;;;;;21.30;10.00;;;282.30;2278.40;;;;;;5053824;28;20020;-79
2023/03/20 01:36:21;;;;;;;;;;;282.20;2278.40;;;;;;5045704;28;20033;-80
2023/03/20 01:38:51;;;;;;;;;;;282.30;2278.40;;;;;;5045653;28;20358;-79
2023/03/20 01:41:17;;;;;;;16.25;9.65;;;282.30;2278.40;;;;;;5050736;28;20370;-79
2023/03/20 01:43:45;;;;;;;19.88;10.55;;;282.20;2278.40;;;;;;5053675;28;20123;-80
2023/03/20 01:46:10;;;;;;;17.67;10.02;;;282.30;2278.40;;;;;;5048435;28;20535;-79
2023/03/20 01:48:52;;;;;;;20.90;10.40;;;282.30;2278.40;;;;;;5051782;28;20021;-80
2023/03/20 01:51:31;;;;;;;25.23;10.23;;;282.30;2278.40;;;;;;5046454;28;20039;-79
2023/03/20 01:54:22;;;;;;;18.27;10.13;;;282.20;2278.40;;;;;;5055702;28;20012;-79
2023/03/20 01:57:03;;;;;;;18.05;10.02;;;282.20;2278.40;;;;;;5051530;28;20425;-79
2023/03/20 01:59:33;;;;;;;18.00;11.25;;;282.50;2278.40;;;;;;5042422;28;20435;-79
2023/03/20 02:01:59;;;;;;;23.52;10.48;;;282.50;2278.40;;;;;;5052956;28;20035;-79
2023/03/20 02:04:39;;;;;;;27.55;9.48;;;282.40;2278.40;;;;;;5055684;28;20481;-79
2023/03/20 02:07:07;;;;;;;22.08;11.82;;;282.40;2278.40;;;;;;5049508;28;20024;-79
2023/03/20 02:09:33;;;;;;;46.38;9.73;;;282.40;2278.40;;;;;;5047410;28;20036;-79
2023/03/20 02:12:00;;;;;;;21.52;9.30;;;282.40;2278.40;;;;;;5047382;28;20029;-80
2023/03/20 02:14:26;;;;;;;26.35;8.93;;;282.40;2278.40;;;;;;5050180;28;20023;-79
2023/03/20 02:16:52;;;;;;;15.38;8.75;;;282.40;2278.40;;;;;;5047445;28;20500;-80
2023/03/20 02:19:50;;;;;;;18.05;8.90;;;282.50;2278.40;;;;;;5065353;28;20025;-80
2023/03/20 02:22:21;;;;;;;14.43;8.30;;;282.40;2278.40;;;;;;5050564;28;20493;-79
2023/03/20 02:25:01;;;;;;;19.73;9.90;;;282.40;2252.80;;;;;;5055845;28;20025;-80
2023/03/20 02:27:44;;;;;;;19.08;9.32;;;282.30;2278.40;;;;;;5040221;28;20032;-80
2023/03/20 02:30:37;;;;;;;20.35;9.30;;;282.50;2278.40;;;;;;5050416;28;20032;-79
2023/03/20 02:33:22;;;;;;;18.33;8.82;;;282.50;2227.20;;;;;;5070467;28;20031;-80
2023/03/20 02:36:26;;;;;;;18.55;9.45;;;307.20;2252.80;;;;;;5046555;28;20043;-79
2023/03/20 02:39:15;;;;;;;20.50;9.27;;;282.50;2252.80;;;;;;4975647;28;20026;-80
2023/03/20 02:42:03;;;;;;;15.07;9.18;;;282.30;2278.40;;;;;;4955862;28;20031;-80
2023/03/20 02:44:46;;;;;;;17.60;8.98;;;282.40;2278.40;;;;;;4955614;28;20101;-80
2023/03/20 02:47:25;;;;;;;17.40;9.52;;;282.40;2278.40;;;;;;4956117;28;20054;-79
2023/03/20 02:50:12;;;;;;;15.32;9.02;;;282.40;2252.80;;;;;;4956060;28;20526;-80
2023/03/20 02:53:00;;;;;;;18.50;8.88;;;282.30;2278.40;;;;;;4955992;28;20050;-79
2023/03/20 02:55:38;;;;;;;18.73;9.90;;;282.20;2278.40;;;;;;4955674;28;20027;-80
2023/03/20 02:58:37;;;;;;;17.80;9.48;;;282.20;2278.40;;;;;;4953408;28;20596;-79
2023/03/20 03:01:12;;;;;;;14.85;9.88;;;282.30;2278.40;;;;;;4971264;28;20029;-79
2023/03/20 03:03:54;;;;;;;14.63;9.33;;;282.20;2278.40;;;;;;4954570;28;20043;-80
2023/03/20 03:06:28;;;;;;;17.08;9.48;;;282.30;2278.40;;;;;;4956097;28;20026;-79
2023/03/20 03:09:05;;;;;;;16.75;9.73;;;282.30;2278.40;;;;;;4977664;28;20037;-79
2023/03/20 03:11:41;;;;;;;15.52;9.82;;;282.10;2278.40;;;;;;5010954;28;20053;-79
2023/03/20 03:14:10;;;;;;;18.77;10.18;;;282.10;2278.40;;;;;;4995050;28;20026;-79
2023/03/20 03:16:37;;;;;;;18.58;9.82;;;282.10;2278.40;;;;;;5010874;28;20025;-79
2023/03/20 03:19:10;;;;;;;15.77;9.40;;;282.00;2278.40;;;;;;5030261;28;20577;-79
2023/03/20 03:21:38;;;;;;;17.52;9.43;;;282.10;2278.40;;;;;;5065930;28;20082;-79
2023/03/20 03:24:04;;;;;;;21.67;10.35;;;282.10;2278.40;;;;;;5056061;28;20380;-81
2023/03/20 03:26:36;;;;;;;18.67;9.93;;;282.10;2278.40;;;;;;5058688;28;20372;-80
2023/03/20 03:29:15;;;;;;;19.05;10.88;;;282.10;2278.40;;;;;;5076949;28;20104;-79
2023/03/20 03:31:43;;;;;;;18.50;10.45;;;282.20;2278.40;;;;;;5054580;28;20040;-80
2023/03/20 03:34:15;;;;;;;19.10;11.65;;;282.20;2278.40;;;;;;5047405;28;20078;-80
2023/03/20 03:37:07;;;;;;;29.80;13.55;;;282.10;2278.40;;;;;;5046150;28;20021;-79
2023/03/20 03:39:50;;;;;;;23.02;11.20;;;282.00;2278.40;;;;;;5058181;28;20024;-79
2023/03/20 03:42:33;;;;;;;25.75;10.98;;;282.00;2278.40;;;;;;5053262;28;20021;-79
2023/03/20 03:45:18;;;;;;;23.30;11.30;;;282.00;2278.40;;;;;;5058546;28;20488;-79
2023/03/20 03:47:52;;;;;;;18.42;11.15;;;281.90;2278.40;;;;;;5072070;28;20103;-79
2023/03/20 03:50:27;;;;;;;20.52;12.27;;;281.80;2278.40;;;;;;5073301;28;20508;-80
2023/03/20 03:52:58;;;;;;;19.23;10.68;;;281.80;2278.40;;;;;;5067848;28;20041;-79
2023/03/20 03:55:28;;;;;;;25.00;11.73;;;281.70;2278.40;;;;;;5055932;28;20025;-80
2023/03/20 03:58:10;;;;;;;21.95;10.63;;;281.70;2278.40;;;;;;5058480;28;20025;-79
2023/03/20 04:00:39;;;;;;;17.13;9.82;;;281.60;2278.40;;;;;;5057850;28;20024;-79
2023/03/20 04:03:07;;;;;;;22.38;11.40;;;281.60;2278.40;;;;;;5057995;28;20049;-80
2023/03/20 04:05:37;;;;;;;22.75;12.25;;;281.70;2278.40;;;;;;5057706;28;20098;-81
2023/03/20 04:08:05;;;;;;;21.77;11.98;;;281.80;2278.40;;;;;;5049363;28;20021;-80
2023/03/20 04:10:31;;;;;;;16.40;10.77;;;281.90;2278.40;;;;;;5057417;28;20074;-80
2023/03/20 04:12:57;;;;;;;22.15;12.05;;;281.80;2278.40;;;;;;5057008;28;20508;-80
2023/03/20 04:15:22;;;;;;;19.50;10.93;;;282.00;2278.40;;;;;;5052239;28;20029;-80
2023/03/20 04:17:48;;;;;;;20.58;11.25;;;281.80;2278.40;;;;;;5052677;28;20498;-79
2023/03/20 04:20:15;;;;;;;21.60;12.25;;;281.90;2278.40;;;;;;5054234;28;20081;-80
2023/03/20 04:22:41;;;;;;;19.65;12.18;;;281.80;2278.40;;;;;;5048581;28;20040;-79
2023/03/20 04:25:08;;;;;;;23.60;13.18;;;281.80;2278.40;;;;;;5049013;28;20017;-80
2023/03/20 04:27:35;;;;;;;24.05;13.05;;;281.80;2278.40;;;;;;5051846;28;20505;-80
2023/03/20 04:30:00;;;;;;;23.48;12.48;;;281.80;2278.40;;;;;;5050417;28;20363;-79
2023/03/20 04:32:26;;;;;;;23.05;12.82;;;281.80;2278.40;;;;;;5050174;28;20039;-80
2023/03/20 04:34:52;;;;;;;28.63;14.50;;;281.80;2278.40;;;;;;5051728;28;20031;-80
2023/03/20 04:37:18;;;;;;;;;;;281.90;2278.40;;;;;;5057318;28;20120;-79
2023/03/20 04:39:43;;;;;;;30.67;13.30;;;281.70;2278.40;;;;;;5056385;28;19994;-80
2023/03/20 04:42:09;;;;;;;;;;;281.70;2278.40;;;;;;5048796;28;20040;-79
2023/03/20 04:44:35;;;;;;;29.17;13.77;;;281.70;2278.40;;;;;;5057526;28;19919;-80
2023/03/20 04:47:00;;;;;;;28.08;13.85;;;281.80;2278.40;;;;;;5053993;28;20052;-80
2023/03/20 04:49:27;;;;;;;;;;;281.80;2278.40;;;;;;5050860;28;20017;-80
2023/03/20 04:51:53;;;;;;;18.40;11.77;;;281.90;2278.40;;;;;;5050351;28;19913;-79
2023/03/20 04:54:19;;;;;;;27.05;14.27;;;282.30;2278.40;;;;;;5047021;28;20481;-79
2023/03/20 04:56:45;;;;;;;21.70;13.57;;;281.60;2278.40;;;;;;5045783;28;20120;-79
2023/03/20 04:59:10;;;;;;;;;;;281.70;2278.40;;;;;;5051704;28;20552;-79
2023/03/20 05:01:36;;;;;;;27.17;13.45;;;281.60;2278.40;;;;;;5056578;28;19913;-79
2023/03/20 05:04:02;;;;;;;;;;;256.90;2252.80;;;;;;5065581;28;20504;-79
2023/03/20 05:06:28;;;;;;;24.95;13.10;;;256.60;2252.80;;;;;;5056303;28;20297;-80
2023/03/20 05:08:54;;;;;;;25.77;14.20;;;256.60;2252.80;;;;;;5050705;28;20028;-79
2023/03/20 05:11:20;;;;;;;24.20;14.43;;;256.60;2252.80;;;;;;5047576;28;20520;-79
2023/03/20 05:13:45;;;;;;;;;;;256.60;2252.80;;;;;;5056682;28;20028;-80
2023/03/20 05:16:11;;;;;;;28.25;15.88;;;256.60;2252.80;;;;;;5074310;28;20003;-80
2023/03/20 05:18:37;;;;;;;;;;;256.40;2252.80;;;;;;5027461;28;20054;-79
2023/03/20 05:21:03;;;;;;;34.88;17.30;;;256.50;2252.80;;;;;;5024543;28;19912;-80
2023/03/20 05:23:29;;;;;;;;;;;256.40;2252.80;;;;;;5026379;28;20471;-80
2023/03/20 05:25:55;;;;;;;29.92;13.98;;;256.30;2252.80;;;;;;5028194;28;20319;-79
2023/03/20 05:28:21;;;;;;;32.70;15.55;;;256.30;2252.80;;;;;;5027843;28;20088;-78
2023/03/20 05:30:47;;;;;;;30.27;15.60;;;256.40;2252.80;;;;;;5006624;28;20033;-79
2023/03/20 05:33:13;;;;;;;31.55;14.80;;;256.40;2252.80;;;;;;5000955;28;20033;-78
2023/03/20 05:35:39;;;;;;;27.58;15.13;;;256.50;2252.80;;;;;;5016865;28;20048;-78
2023/03/20 05:38:05;;;;;;;25.98;14.40;;;256.80;2252.80;;;;;;5033267;28;20064;-81
2023/03/20 05:40:30;;;;;;;28.90;15.95;;;281.60;2278.40;;;;;;5044937;28;20061;-81
2023/03/20 05:42:56;;;;;;;;;;;281.60;2278.40;;;;;;5043331;28;20029;-80
2023/03/20 05:45:22;;;;;;;24.50;15.07;;;281.80;2278.40;;;;;;5032394;28;19909;-80
2023/03/20 05:47:48;;;;;;;32.88;16.80;;;282.00;2278.40;;;;;;5033591;28;20075;-79
2023/03/20 05:50:14;;;;;;;35.72;20.90;;;282.10;2278.40;;;;;;5032068;28;20124;-80
2023/03/20 05:52:39;;;;;;;44.55;26.50;;;282.30;2278.40;;;;;;5016929;28;20472;-80
2023/03/20 05:55:06;;;;;;;50.08;23.10;;;282.40;2278.40;;;;;;5016578;28;20025;-82
2023/03/20 05:57:31;;;;;;;32.38;19.85;;;307.20;2304.00;;;;;;5033057;28;20064;-87
2023/03/20 05:59:57;;;;;;;31.25;17.63;;;307.20;2304.00;;;;;;5033462;28;20045;-79
2023/03/20 06:02:23;;;;;;;30.60;16.70;;;307.30;2304.00;;;;;;5015317;28;20033;-84
2023/03/20 06:04:49;;;;;;;26.35;16.50;;;307.30;2304.00;;;;;;5033564;28;20112;-89
2023/03/20 06:07:14;;;;;;;31.92;15.32;;;307.50;2304.00;;;;;;5033086;28;20028;-79
2023/03/20 06:09:40;;;;;;;31.83;17.65;;;307.60;2304.00;;;;;;5033459;28;20035;-83
2023/03/20 06:12:06;;;;;;;30.85;16.85;;;307.60;2252.80;;;;;;5033141;28;20505;-90
2023/03/20 06:14:32;;;;;;;;;;;307.60;2227.20;;;;;;5034334;28;20390;-92
2023/03/20 06:16:59;;;;;;;31.13;18.00;;;307.70;2201.60;;;;;;5034729;28;19909;-86
2023/03/20 06:19:25;;;;;;;36.97;19.02;;;307.80;2201.60;;;;;;5036213;28;20593;-87
2023/03/20 06:21:50;;;;;;;36.20;17.35;;;307.90;2227.20;;;;;;5032657;28;20112;-81
2023/03/20 06:24:17;;;;;;;39.22;21.05;;;307.90;2278.40;;;;;;5052943;28;20037;-87
2023/03/20 06:26:43;;;;;;;36.42;19.40;;;308.00;2201.60;;;;;;5055889;28;20060;-94
2023/03/20 06:29:09;;;;;;;31.23;18.40;;;308.10;2176.00;;;;;;5048919;28;20033;-93
2023/03/20 06:31:34;;;;;;;31.27;18.95;;;332.80;2176.00;;;;;;5047517;28;20025;-86
2023/03/20 06:34:01;;;;;;;35.67;19.95;;;332.90;2099.20;;;;;;5053945;28;20060;-89
2023/03/20 06:36:27;;;;;;;32.65;19.20;;;332.90;2099.20;;;;;;5041054;28;20028;-81
2023/03/20 06:38:55;;;;;;;33.35;19.50;;;332.90;2099.20;;;;;;5043893;28;20029;-80
2023/03/20 06:41:21;;;;;;;32.58;19.35;;;333.00;2099.20;;;;;;5044654;28;20023;-83
2023/03/20 06:43:47;;;;;;;29.55;18.77;;;333.20;2124.80;;;;;;5049016;28;20029;-86
2023/03/20 06:46:13;;;;;;;34.88;19.75;;;333.20;2150.40;;;;;;5041107;28;20021;-82
2023/03/20 06:48:39;;;;;;;35.13;18.90;;;333.40;2150.40;;;;;;5050639;28;20442;-77
2023/03/20 06:51:05;;;;;;;35.50;20.67;;;333.50;2150.40;;;;;;5047896;28;20071;-83
2023/03/20 06:53:31;;;;;;;32.88;20.75;;;333.60;2099.20;;;;;;5040635;28;20049;-81
2023/03/20 06:55:56;;;;;;;36.90;22.58;;;333.70;2073.60;;;;;;5038842;28;20021;-90
2023/03/20 06:58:22;;;;;;;44.42;23.80;;;333.70;2073.60;;;;;;5050728;28;20032;-92
2023/03/20 07:00:48;;;;;;;43.88;25.15;;;358.50;2073.60;;;;;;5041425;28;20021;-80
2023/03/20 07:03:14;;;;;;;45.50;26.73;;;358.60;2048.00;;;;;;5043730;28;20123;-84
2023/03/20 07:05:40;;;;;;;39.17;22.23;;;358.70;2048.00;;;;;;5051490;28;20521;-84
2023/03/20 07:08:06;;;;;;;39.45;23.05;;;358.80;2073.60;;;;;;5051656;28;20037;-79
2023/03/20 07:10:33;;;;;;;40.70;24.20;;;358.90;2073.60;;;;;;5048637;28;20041;-79
2023/03/20 07:12:59;;;;;;;37.85;21.95;;;359.10;2048.00;;;;;;5042930;28;20115;-78
2023/03/20 07:15:25;;;;;;;37.83;24.13;;;359.00;1971.20;;;;;;5051991;28;20017;-89
2023/03/20 07:17:52;;;;;;;34.97;23.10;;;359.20;1971.20;;;;;;5048780;28;20053;-83
2023/03/20 07:20:17;;;;;;;32.55;22.90;;;359.30;1945.60;;;;;;5047610;28;20075;-83
2023/03/20 07:22:43;;;;;;;34.63;22.15;;;384.00;1920.00;;;;;;5052262;28;20028;-83
2023/03/20 07:25:10;;;;;;;35.78;23.35;;;384.10;1920.00;;;;;;5044783;28;20452;-84
2023/03/20 07:27:36;;;;;;;41.55;23.92;;;384.00;1971.20;;;;;;5041967;28;20025;-87
2023/03/20 07:30:03;;;;;;;32.28;22.35;;;384.10;2022.40;;;;;;5047861;28;20033;-83
2023/03/20 07:32:29;;;;;;;35.50;19.70;;;384.40;1996.80;;;;;;5045477;28;20392;-90
2023/03/20 07:34:55;;;;;;;38.08;20.45;;;384.40;1920.00;;;;;;5051156;28;20040;-88
2023/03/20 07:37:20;;;;;;;32.80;21.35;;;384.50;1920.00;;;;;;5043990;28;20049;-85
2023/03/20 07:39:46;;;;;;;31.52;19.95;;;384.70;1920.00;;;;;;5043557;28;20378;-79
2023/03/20 07:42:15;;;;;;;30.63;19.48;;;384.70;1945.60;;;;;;5047994;28;20390;-79
2023/03/20 07:44:41;;;;;;;28.50;18.30;;;384.60;2022.40;;;;;;5050156;28;20074;-81
2023/03/20 07:47:07;;;;;;;29.73;18.50;;;384.70;2022.40;;;;;;5042761;28;20116;-85
2023/03/20 07:49:33;;;;;;;31.08;18.48;;;384.90;1996.80;;;;;;5049932;28;20021;-79
2023/03/20 07:51:59;;;;;;;27.75;18.10;;;384.80;2048.00;;;;;;5039385;28;20562;-78
2023/03/20 07:54:25;;;;;;;27.48;17.88;;;384.80;2073.60;;;;;;5044422;28;20112;-80
2023/03/20 07:56:51;;;;;;;29.55;16.63;;;409.60;2073.60;;;;;;5048445;28;20180;-81
2023/03/20 07:59:18;;;;;;;29.92;17.60;;;409.70;2022.40;;;;;;5051450;28;20029;-79
2023/03/20 08:01:44;;;;;;;59.80;36.25;;;409.80;2048.00;;;;;;5039310;28;20028;-76
2023/03/20 08:04:10;;;;;;;30.45;16.25;;;409.90;2048.00;;;;;;5052016;28;20028;-77
2023/03/20 08:06:38;;;;;;;22.60;15.20;;;409.90;2048.00;;;;;;5040932;28;20040;-79
2023/03/20 08:09:04;;;;;;;25.35;14.30;;;410.00;2048.00;;;;;;5055923;28;20025;-80
2023/03/20 08:11:30;;;;;;;21.13;13.63;;;410.10;2073.60;;;;;;5045350;28;20037;-81
2023/03/20 08:13:56;;;;;;;20.17;12.60;;;410.20;2048.00;;;;;;5053773;28;20029;-80
2023/03/20 08:16:22;;;;;;;20.35;12.20;;;410.20;2048.00;;;;;;5048757;28;20128;-80
2023/03/20 08:18:49;;;;;;;14.77;9.80;;;410.40;2022.40;;;;;;5048089;28;20076;-80
2023/03/20 08:21:15;;;;;;;15.95;9.60;;;410.40;2022.40;;;;;;5048239;28;20033;-79
2023/03/20 08:23:41;;;;;;;16.17;8.65;;;435.20;2048.00;;;;;;5048024;28;20032;-78
2023/03/20 08:26:06;;;;;;;12.80;8.43;;;435.30;1971.20;;;;;;5055714;28;20086;-85
2023/03/20 08:28:32;;;;;;;19.45;8.95;;;435.30;1920.00;;;;;;5053364;28;20018;-80
2023/03/20 08:30:57;;;;;;;17.80;7.57;;;435.40;1920.00;;;;;;5054886;28;20063;-79
2023/03/20 08:33:23;;;;;;;11.32;7.40;;;435.50;1920.00;;;;;;5055787;28;20036;-82
2023/03/20 08:35:57;;;;;;;12.55;6.25;;;435.50;1868.80;;;;;;5054343;28;20114;-85
2023/03/20 08:38:23;;;;;;;10.50;6.45;;;435.60;1843.20;;;;;;5050549;28;20475;-82
2023/03/20 08:40:49;;;;;;;14.77;7.47;;;435.70;1843.20;;;;;;5046137;28;20111;-78
2023/03/20 08:43:14;;;;;;;9.43;5.88;;;435.60;1817.60;;;;;;5044073;28;20080;-80
2023/03/20 08:45:40;;;;;;;11.32;5.22;;;435.70;1792.00;;;;;;5044253;28;20047;-83
2023/03/20 08:48:06;;;;;;;12.73;6.25;;;435.80;1792.00;;;;;;5055257;28;20021;-83
2023/03/20 08:50:31;;;;;;;16.20;7.63;;;435.80;1740.80;;;;;;5054887;28;20128;-86
2023/03/20 08:52:57;;;;;;;16.08;7.15;;;435.80;1740.80;;;;;;5050253;28;20083;-86
2023/03/20 08:55:23;;;;;;;13.90;6.93;;;435.80;1766.40;;;;;;5055767;28;20025;-92
2023/03/20 08:57:49;;;;;;;11.50;7.63;;;435.90;1766.40;;;;;;5056600;28;20025;-90
2023/03/20 09:00:15;;;;;;;12.73;5.10;;;435.90;1740.80;;;;;;5052769;28;20052;-83
2023/03/20 09:02:42;;;;;;;8.68;4.90;;;436.00;1715.20;;;;;;5055477;28;20025;-84
2023/03/20 09:05:09;;;;;;;10.63;5.57;;;436.10;1715.20;;;;;;5053936;28;20075;-88
2023/03/20 09:07:35;;;;;;;11.20;5.32;;;460.80;1740.80;;;;;;5053401;28;20431;-87
2023/03/20 09:10:01;;;;;;;8.10;4.57;;;460.80;1715.20;;;;;;5054577;28;20474;-87
2023/03/20 09:12:27;;;;;;;9.35;5.22;;;460.90;1766.40;;;;;;5054210;28;20136;-86
2023/03/20 09:14:53;;;;;;;8.95;4.82;;;461.10;1740.80;;;;;;5055823;28;20494;-84
2023/03/20 09:17:18;;;;;;;21.70;6.18;;;461.20;1740.80;;;;;;5041438;28;20451;-83
2023/03/20 09:19:44;;;;;;;14.52;5.45;;;461.20;1715.20;;;;;;5033668;28;20018;-81
2023/03/20 09:22:16;;;;;;;11.23;5.80;;;461.40;1715.20;;;;;;5033759;28;20068;-81
2023/03/20 09:24:42;;;;;;;10.30;6.10;;;461.50;1689.60;;;;;;5034665;28;20032;-84
2023/03/20 09:27:09;;;;;;;10.73;4.78;;;461.70;1664.00;;;;;;5042200;28;20025;-84
2023/03/20 09:29:34;;;;;;;10.63;4.38;;;461.70;1664.00;;;;;;5027791;28;20037;-85
2023/03/20 09:32:00;;;;;;;13.13;5.28;;;486.40;1664.00;;;;;;5044098;28;20095;-84
2023/03/20 09:34:26;;;;;;;10.30;5.50;;;486.50;1689.60;;;;;;5020863;28;20476;-81
2023/03/20 09:36:52;;;;;;;17.00;6.25;;;486.50;1664.00;;;;;;5017536;28;20029;-79
2023/03/20 09:39:18;;;;;;;9.45;5.22;;;486.70;1612.80;;;;;;5016789;28;20026;-81
2023/03/20 09:41:48;;;;;;;23.77;13.23;;;486.70;1638.40;;;;;;5033335;28;20041;-80
2023/03/20 09:44:17;;;;;;;9.85;4.93;;;486.90;1612.80;;;;;;5016795;28;20021;-82
2023/03/20 09:47:06;;;;;;;8.18;4.30;;;486.90;1587.20;;;;;;5016612;28;20509;-80
2023/03/20 09:49:48;;;;;;;16.30;5.10;;;486.90;1561.60;;;;;;5014908;28;20044;-78
2023/03/20 09:52:43;;;;;;;14.23;4.60;;;487.00;1561.60;;;;;;5030777;28;20498;-80
2023/03/20 09:55:16;;;;;;;16.90;5.72;;;487.00;1510.40;;;;;;5046308;28;20030;-86
2023/03/20 09:57:53;;;;;;;13.10;4.80;;;487.00;1536.00;;;;;;5032426;28;20494;-81
2023/03/20 10:00:23;;;;;;;10.40;4.95;;;487.10;1536.00;;;;;;5032351;28;20080;-79
2023/03/20 10:02:53;;;;;;;10.70;5.45;;;487.00;1536.00;;;;;;5030814;28;20525;-78
2023/03/20 10:05:36;;;;;;;9.68;5.40;;;487.00;1587.20;;;;;;5049143;28;20116;-77
2023/03/20 10:08:05;;;;;;;8.55;4.50;;;486.90;1536.00;;;;;;5032590;28;20395;-77
2023/03/20 10:10:38;;;;;;;8.95;4.72;;;486.90;1510.40;;;;;;5031750;28;20529;-78
2023/03/20 10:13:25;;;;;;;10.60;5.75;;;486.90;1510.40;;;;;;5015980;28;20041;-77
2023/03/20 10:16:18;;;;;;;9.55;5.03;;;486.80;1484.80;;;;;;5033229;28;20104;-78
2023/03/20 10:18:56;;;;;;;10.38;5.03;;;486.80;1510.40;;;;;;5045632;28;20103;-79
2023/03/20 10:21:38;;;;;;;13.35;6.97;;;486.90;1510.40;;;;;;5047019;28;20065;-85
2023/03/20 10:24:05;;;;;;;31.75;10.55;;;487.00;1510.40;;;;;;5045194;28;20014;-85
2023/03/20 10:26:34;;;;;;;20.50;7.38;;;487.20;1510.40;;;;;;5045925;28;20049;-83
2023/03/20 10:29:05;;;;;;;8.60;4.07;;;512.00;1510.40;;;;;;5044093;28;20029;-81
2023/03/20 10:31:46;;;;;;;20.73;7.20;;;512.30;1510.40;;;;;;5053623;28;20494;-78
2023/03/20 10:34:11;;;;;;;9.25;4.55;;;512.60;1484.80;;;;;;5052557;28;20108;-80
2023/03/20 10:36:49;;;;;;;7.28;3.83;;;512.90;1459.20;;;;;;5053611;28;20017;-80
2023/03/20 10:39:39;;;;;;;11.95;5.22;;;512.90;1433.60;;;;;;5051964;28;20067;-81
2023/03/20 10:42:16;;;;;;;8.90;4.65;;;537.80;1433.60;;;;;;5047484;28;20204;-82
2023/03/20 10:44:48;;;;;;;12.38;5.40;;;538.00;1408.00;;;;;;5048915;28;20036;-80
2023/03/20 10:47:17;;;;;;;11.70;5.55;;;538.30;1356.80;;;;;;5042265;28;20405;-80
2023/03/20 10:49:53;;;;;;;7.95;3.63;;;538.50;1356.80;;;;;;5048967;28;20075;-82
2023/03/20 10:52:25;;;;;;;;;;;563.40;1356.80;;;;;;5052036;28;20136;-80
2023/03/20 10:55:03;;;;;;;8.60;3.80;;;563.50;1356.80;;;;;;5053132;28;19915;-81
2023/03/20 10:57:34;;;;;;;9.98;3.53;;;563.50;1331.20;;;;;;5047767;28;20028;-82
2023/03/20 11:00:00;;;;;;;10.18;4.55;;;563.60;1331.20;;;;;;5046473;28;20033;-80
2023/03/20 11:02:30;;;;;;;5.72;3.20;;;563.70;1305.60;;;;;;5041455;28;20024;-81
2023/03/20 11:05:00;;;;;;;4.95;2.60;;;563.70;1305.60;;;;;;5046973;28;20025;-82
2023/03/20 11:07:36;;;;;;;5.93;3.75;;;563.90;1305.60;;;;;;5051132;28;20017;-80
2023/03/20 11:10:05;;;;;;;5.97;3.33;;;564.10;1280.00;;;;;;5048240;28;20029;-76
2023/03/20 11:12:39;;;;;;;7.60;3.17;;;564.10;1280.00;;;;;;5050190;28;20108;-77
2023/03/20 11:15:34;;;;;;;12.02;5.18;;;588.80;1280.00;;;;;;5038450;28;20029;-80
2023/03/20 11:18:06;;;;;;;7.93;3.90;;;588.80;1280.00;;;;;;4970392;28;20101;-77
2023/03/20 11:20:37;;;;;;;7.45;3.50;;;564.10;1280.00;;;;;;4949008;28;20394;-77
2023/03/20 11:23:05;;;;;;;15.02;6.43;;;589.00;1280.00;;;;;;4971151;28;20396;-77
2023/03/20 11:25:44;;;;;;;5.05;2.58;;;589.10;1280.00;;;;;;4984715;28;20080;-78
2023/03/20 11:28:25;;;;;;;11.50;4.20;;;589.10;1280.00;;;;;;4975402;28;20045;-78
2023/03/20 11:31:14;;;;;;;12.70;4.00;;;589.30;1254.40;;;;;;4986717;28;20165;-78
2023/03/20 11:33:43;;;;;;;9.73;4.78;;;589.30;1254.40;;;;;;4972364;28;20058;-77
2023/03/20 11:36:25;;;;;;;12.73;6.30;;;589.60;1254.40;;;;;;4992665;28;20034;-77
2023/03/20 11:38:57;;;;;;;6.47;3.25;;;589.60;1254.40;;;;;;4966296;28;20070;-76
2023/03/20 11:41:25;;;;;;;11.27;4.32;;;589.70;1228.80;;;;;;4994934;28;20072;-77
2023/03/20 11:43:52;;;;;;;7.53;4.00;;;589.70;1228.80;;;;;;4996862;28;20130;-78
2023/03/20 11:46:21;;;;;;;6.85;3.58;;;589.50;1254.40;;;;;;4998426;28;20061;-78
2023/03/20 11:49:00;;;;;;;4.55;2.90;;;589.40;1254.40;;;;;;4995304;28;20034;-81
2023/03/20 11:51:26;;;;;;;8.00;3.05;;;589.30;1254.40;;;;;;4976859;28;20026;-81
2023/03/20 11:53:57;;;;;;;14.10;3.63;;;588.80;1280.00;;;;;;5012175;28;20044;-79
2023/03/20 11:56:27;;;;;;;6.60;3.42;;;588.80;1280.00;;;;;;5050543;28;20013;-80
2023/03/20 11:59:02;;;;;;;9.60;3.90;;;564.10;1280.00;;;;;;5055985;28;20036;-77
2023/03/20 12:01:36;;;;;;;6.88;3.63;;;564.00;1305.60;;;;;;5053357;28;20028;-79
2023/03/20 12:04:04;;;;;;;8.48;3.80;;;564.00;1305.60;;;;;;5048328;28;20124;-79
2023/03/20 12:06:51;;;;;;;10.40;3.50;;;588.80;1331.20;;;;;;5053739;28;20466;-79
2023/03/20 12:09:26;;;;;;;9.18;3.63;;;564.10;1331.20;;;;;;5048445;28;20044;-78
2023/03/20 12:12:10;;;;;;;8.90;2.78;;;563.90;1331.20;;;;;;5055532;28;20059;-78
2023/03/20 12:14:57;;;;;;;10.45;3.35;;;563.80;1331.20;;;;;;5052309;28;20017;-78
2023/03/20 12:17:38;;;;;;;11.02;3.97;;;563.50;1382.40;;;;;;5055846;28;20073;-79
2023/03/20 12:20:33;;;;;;;6.13;2.95;;;563.30;1408.00;;;;;;5054329;28;20029;-80
2023/03/20 12:23:10;;;;;;;6.47;3.30;;;563.30;1408.00;;;;;;5064979;28;20109;-79
2023/03/20 12:25:40;;;;;;;6.55;2.97;;;538.50;1382.40;;;;;;5050836;28;20406;-79